createdAt,value
2019-01-14T00:02:37.481Z,2.38
2019-01-14T00:13:39.062Z,2.60
2019-01-14T00:24:37.969Z,2.71
2019-01-14T00:35:41.057Z,2.53
2019-01-14T00:46:45.318Z,2.57
2019-01-14T00:57:43.273Z,2.70
2019-01-14T01:08:43.813Z,2.62
2019-01-14T01:19:27.316Z,2.44
2019-01-14T01:30:32.070Z,2.19
2019-01-14T01:41:33.147Z,2.19
2019-01-14T01:52:32.997Z,2.05
2019-01-14T02:03:38.162Z,1.98
2019-01-14T02:14:37.948Z,2.24
2019-01-14T02:25:38.502Z,2.38
2019-01-14T02:36:38.828Z,2.34
2019-01-14T02:47:43.265Z,2.44
2019-01-14T02:58:44.729Z,3.22
2019-01-14T03:09:33.216Z,5.34
2019-01-14T03:20:37.559Z,4.44
2019-01-14T03:31:37.697Z,4.10
2019-01-14T03:42:34.780Z,3.87
2019-01-14T03:53:39.185Z,3.90
2019-01-14T04:04:36.585Z,3.27
2019-01-14T04:15:40.370Z,2.73
2019-01-14T04:26:41.745Z,2.77
2019-01-14T04:37:42.940Z,3.32
2019-01-14T04:48:44.645Z,3.22
2019-01-14T04:59:43.266Z,2.80
2019-01-14T05:10:43.788Z,4.47
2019-01-14T05:21:49.880Z,5.59
2019-01-14T05:32:53.840Z,5.92
2019-01-14T05:43:53.199Z,5.74
2019-01-14T05:54:57.606Z,5.83
2019-01-14T06:05:58.549Z,5.74
2019-01-14T06:16:57.284Z,5.32
2019-01-14T06:28:01.316Z,5.52
2019-01-14T06:39:05.642Z,4.95
2019-01-14T06:50:10.021Z,4.25
2019-01-14T07:01:10.740Z,3.53
2019-01-14T07:12:14.905Z,2.96
2019-01-14T07:23:12.948Z,2.74
2019-01-14T07:34:16.688Z,2.96
2019-01-14T07:45:17.640Z,3.50
2019-01-14T07:56:22.635Z,3.69
2019-01-14T08:07:23.293Z,3.75
2019-01-14T08:18:23.713Z,4.59
2019-01-14T08:29:28.832Z,5.02
2019-01-14T08:40:30.046Z,5.57
2019-01-14T08:51:33.463Z,5.99
2019-01-14T09:02:33.600Z,7.56
2019-01-14T09:13:33.541Z,7.93
2019-01-14T09:24:34.642Z,8.19
2019-01-14T09:35:38.618Z,8.19
2019-01-14T09:46:36.541Z,8.21
2019-01-14T09:57:36.003Z,8.22
2019-01-14T10:08:35.497Z,8.40
2019-01-14T10:19:38.767Z,8.57
2019-01-14T10:30:40.237Z,8.90
2019-01-14T10:41:43.311Z,9.06
2019-01-14T10:52:46.643Z,9.29
2019-01-14T11:03:43.079Z,9.52
2019-01-14T11:14:43.190Z,9.98
2019-01-14T11:25:46.374Z,9.10
2019-01-14T11:36:48.977Z,8.94
2019-01-14T11:47:48.035Z,9.24
2019-01-14T11:58:48.563Z,9.37
2019-01-14T12:09:52.389Z,9.82
2019-01-14T12:20:52.390Z,8.98
2019-01-14T12:32:01.459Z,8.19
2019-01-14T12:43:12.097Z,8.57
2019-01-14T12:54:16.245Z,8.39
2019-01-14T13:05:15.488Z,8.62
2019-01-14T13:16:16.844Z,7.88
2019-01-14T13:27:16.592Z,7.99
2019-01-14T13:38:07.565Z,7.97
2019-01-14T13:49:11.285Z,8.40
2019-01-14T14:00:12.313Z,7.85
2019-01-14T14:11:14.557Z,7.76
2019-01-14T14:22:16.839Z,7.62
2019-01-14T14:33:17.692Z,7.73
2019-01-14T14:44:24.576Z,7.59
2019-01-14T14:55:27.505Z,7.70
2019-01-14T15:06:26.744Z,7.39
2019-01-14T15:17:29.009Z,7.19
2019-01-14T15:28:30.936Z,6.87
2019-01-14T15:39:28.170Z,6.62
2019-01-14T15:50:28.717Z,6.04
2019-01-14T16:01:30.790Z,5.20
2019-01-14T16:12:32.642Z,4.91
2019-01-14T16:23:36.937Z,6.50
2019-01-14T16:34:40.142Z,6.24
2019-01-14T16:45:41.437Z,5.44
2019-01-14T16:56:42.680Z,4.96
2019-01-14T17:07:39.557Z,4.72
2019-01-14T17:18:37.881Z,4.56
2019-01-14T17:29:35.231Z,4.55
2019-01-14T17:40:33.746Z,4.56
2019-01-14T17:51:32.639Z,4.43
2019-01-14T18:02:33.687Z,5.26
2019-01-14T18:13:37.448Z,5.56
2019-01-14T18:24:36.318Z,5.16
2019-01-14T18:35:36.609Z,4.76
2019-01-14T18:46:36.133Z,4.28
2019-01-14T18:57:33.972Z,3.97
2019-01-14T19:08:31.628Z,3.54
2019-01-14T19:19:33.953Z,3.56
2019-01-14T19:30:29.089Z,3.69
2019-01-14T19:41:04.154Z,4.40
2019-01-14T19:52:07.015Z,3.14
2019-01-14T20:03:08.675Z,2.34
2019-01-14T20:14:21.085Z,2.32
2019-01-14T20:25:21.761Z,2.55
2019-01-14T20:36:14.588Z,2.38
2019-01-14T20:47:14.380Z,2.38
2019-01-14T20:58:12.679Z,2.34
2019-01-14T21:09:04.608Z,2.62
2019-01-14T21:20:02.778Z,2.74
2019-01-14T21:30:59.273Z,2.49
2019-01-14T21:41:53.363Z,2.16
2019-01-14T21:52:55.050Z,1.83
2019-01-14T22:03:59.300Z,1.62
2019-01-14T22:15:03.102Z,1.47
2019-01-14T22:26:04.023Z,1.68
2019-01-14T22:36:54.587Z,1.59
2019-01-14T22:47:52.920Z,1.37
2019-01-14T22:58:54.682Z,0.93
2019-01-14T23:09:34.572Z,0.74
2019-01-14T23:20:35.342Z,0.53
2019-01-14T23:31:39.574Z,0.31
2019-01-14T23:42:38.265Z,0.09
2019-01-14T23:53:42.430Z,0.04
